sensor_id;sensor_type;location;lat;lon;timestamp;pressure;altitude;pressure_sealevel;temperature;humidity
18022;BME280;9136;48.822;7.966;2023-02-10T00:02:46;102247.59;;;-3.73;100.00
18022;BME280;9136;48.822;7.966;2023-02-10T00:05:34;102238.81;;;-3.77;100.00
18022;BME280;9136;48.822;7.966;2023-02-10T00:08:22;102239.78;;;-3.60;100.00
18022;BME280;9136;48.822;7.966;2023-02-10T00:11:10;102232.81;;;-3.63;100.00
18022;BME280;9136;48.822;7.966;2023-02-10T00:13:58;102262.47;;;-3.53;100.00
18022;BME280;9136;48.822;7.966;2023-02-10T00:16:49;102253.00;;;-3.84;100.00
18022;BME280;9136;48.822;7.966;2023-02-10T00:19:38;102268.88;;;-3.76;100.00
18022;BME280;9136;48.822;7.966;2023-02-10T00:22:26;102264.34;;;-3.95;100.00
18022;BME280;9136;48.822;7.966;2023-02-10T00:25:13;102242.50;;;-4.16;100.00
18022;BME280;9136;48.822;7.966;2023-02-10T00:28:01;102264.06;;;-4.14;100.00
18022;BME280;9136;48.822;7.966;2023-02-10T00:30:49;102233.69;;;-4.21;100.00
18022;BME280;9136;48.822;7.966;2023-02-10T00:33:37;102249.19;;;-3.90;100.00
18022;BME280;9136;48.822;7.966;2023-02-10T00:36:26;102258.84;;;-3.71;100.00
18022;BME280;9136;48.822;7.966;2023-02-10T00:39:15;102253.59;;;-3.58;100.00
18022;BME280;9136;48.822;7.966;2023-02-10T00:42:03;102256.81;;;-3.62;100.00
18022;BME280;9136;48.822;7.966;2023-02-10T00:44:51;102269.38;;;-3.52;100.00
18022;BME280;9136;48.822;7.966;2023-02-10T00:47:39;102241.84;;;-3.69;100.00
18022;BME280;9136;48.822;7.966;2023-02-10T00:50:27;102279.19;;;-3.60;100.00
18022;BME280;9136;48.822;7.966;2023-02-10T00:53:16;102263.09;;;-3.72;100.00
18022;BME280;9136;48.822;7.966;2023-02-10T00:56:05;102282.75;;;-3.58;100.00
18022;BME280;9136;48.822;7.966;2023-02-10T00:58:53;102274.69;;;-3.64;100.00
18022;BME280;9136;48.822;7.966;2023-02-10T01:01:40;102269.53;;;-3.79;100.00
18022;BME280;9136;48.822;7.966;2023-02-10T01:04:28;102255.75;;;-3.81;100.00
18022;BME280;9136;48.822;7.966;2023-02-10T01:07:16;102253.16;;;-3.81;100.00
18022;BME280;9136;48.822;7.966;2023-02-10T01:10:07;102258.56;;;-3.91;100.00
18022;BME280;9136;48.822;7.966;2023-02-10T01:12:55;102283.63;;;-3.87;100.00
18022;BME280;9136;48.822;7.966;2023-02-10T01:15:44;102293.28;;;-3.83;100.00
18022;BME280;9136;48.822;7.966;2023-02-10T01:18:32;102279.81;;;-3.93;100.00
18022;BME280;9136;48.822;7.966;2023-02-10T01:21:20;102299.69;;;-3.76;100.00
18022;BME280;9136;48.822;7.966;2023-02-10T01:24:09;102294.25;;;-3.95;100.00
18022;BME280;9136;48.822;7.966;2023-02-10T01:26:58;102300.16;;;-4.11;100.00
18022;BME280;9136;48.822;7.966;2023-02-10T01:29:46;102309.63;;;-4.10;100.00
18022;BME280;9136;48.822;7.966;2023-02-10T01:32:34;102304.03;;;-4.18;100.00
18022;BME280;9136;48.822;7.966;2023-02-10T01:35:22;102314.66;;;-4.12;100.00
18022;BME280;9136;48.822;7.966;2023-02-10T01:38:10;102303.75;;;-4.22;100.00
18022;BME280;9136;48.822;7.966;2023-02-10T01:40:58;102318.34;;;-4.21;100.00
18022;BME280;9136;48.822;7.966;2023-02-10T01:43:56;102300.16;;;-4.39;100.00
18022;BME280;9136;48.822;7.966;2023-02-10T01:46:45;102305.13;;;-4.42;100.00
18022;BME280;9136;48.822;7.966;2023-02-10T01:49:36;102307.16;;;-4.37;100.00
18022;BME280;9136;48.822;7.966;2023-02-10T01:52:26;102326.31;;;-4.17;100.00
18022;BME280;9136;48.822;7.966;2023-02-10T01:55:20;102340.66;;;-4.20;100.00
18022;BME280;9136;48.822;7.966;2023-02-10T01:58:10;102336.22;;;-4.23;100.00
18022;BME280;9136;48.822;7.966;2023-02-10T02:01:02;102314.75;;;-4.38;100.00
18022;BME280;9136;48.822;7.966;2023-02-10T02:03:51;102316.19;;;-4.43;100.00
18022;BME280;9136;48.822;7.966;2023-02-10T02:06:41;102329.34;;;-4.37;100.00
18022;BME280;9136;48.822;7.966;2023-02-10T02:09:29;102338.06;;;-4.48;100.00
18022;BME280;9136;48.822;7.966;2023-02-10T02:12:23;102335.13;;;-4.54;100.00
18022;BME280;9136;48.822;7.966;2023-02-10T02:15:21;102328.59;;;-4.49;100.00
18022;BME280;9136;48.822;7.966;2023-02-10T02:18:17;102322.03;;;-4.59;100.00
18022;BME280;9136;48.822;7.966;2023-02-10T02:21:39;102297.47;;;-4.69;100.00
18022;BME280;9136;48.822;7.966;2023-02-10T02:24:49;102316.09;;;-4.58;100.00
18022;BME280;9136;48.822;7.966;2023-02-10T02:34:22;102308.59;;;-4.27;100.00
18022;BME280;9136;48.822;7.966;2023-02-10T02:37:15;102322.03;;;-4.31;100.00
18022;BME280;9136;48.822;7.966;2023-02-10T02:40:05;102305.03;;;-4.44;100.00
18022;BME280;9136;48.822;7.966;2023-02-10T02:42:53;102314.59;;;-4.41;100.00
18022;BME280;9136;48.822;7.966;2023-02-10T02:45:47;102290.50;;;-4.71;100.00
18022;BME280;9136;48.822;7.966;2023-02-10T02:48:52;102333.34;;;-4.42;100.00
18022;BME280;9136;48.822;7.966;2023-02-10T02:51:50;102342.59;;;-4.44;100.00
18022;BME280;9136;48.822;7.966;2023-02-10T02:54:48;102337.91;;;-4.51;100.00
18022;BME280;9136;48.822;7.966;2023-02-10T02:57:44;102320.97;;;-4.63;100.00
18022;BME280;9136;48.822;7.966;2023-02-10T03:00:35;102306.56;;;-4.74;100.00
18022;BME280;9136;48.822;7.966;2023-02-10T03:03:24;102337.50;;;-4.57;100.00
18022;BME280;9136;48.822;7.966;2023-02-10T03:06:12;102335.25;;;-4.66;100.00
18022;BME280;9136;48.822;7.966;2023-02-10T03:09:02;102330.50;;;-4.60;100.00
18022;BME280;9136;48.822;7.966;2023-02-10T03:11:52;102348.16;;;-4.65;100.00
18022;BME280;9136;48.822;7.966;2023-02-10T03:14:40;102319.41;;;-4.87;100.00
18022;BME280;9136;48.822;7.966;2023-02-10T03:17:28;102334.56;;;-4.77;100.00
18022;BME280;9136;48.822;7.966;2023-02-10T03:20:16;102342.00;;;-4.81;100.00
18022;BME280;9136;48.822;7.966;2023-02-10T03:23:04;102321.25;;;-4.84;100.00
18022;BME280;9136;48.822;7.966;2023-02-10T03:25:57;102329.25;;;-4.80;100.00
18022;BME280;9136;48.822;7.966;2023-02-10T03:28:45;102346.81;;;-4.73;100.00
18022;BME280;9136;48.822;7.966;2023-02-10T03:31:32;102342.66;;;-4.84;100.00
18022;BME280;9136;48.822;7.966;2023-02-10T03:34:21;102329.47;;;-5.03;100.00
18022;BME280;9136;48.822;7.966;2023-02-10T03:37:08;102332.53;;;-5.09;100.00
18022;BME280;9136;48.822;7.966;2023-02-10T03:39:56;102348.50;;;-5.00;100.00
18022;BME280;9136;48.822;7.966;2023-02-10T03:42:46;102371.66;;;-4.98;100.00
18022;BME280;9136;48.822;7.966;2023-02-10T03:45:34;102345.03;;;-5.27;100.00
18022;BME280;9136;48.822;7.966;2023-02-10T03:48:22;102356.19;;;-5.26;100.00
18022;BME280;9136;48.822;7.966;2023-02-10T03:51:12;102343.03;;;-5.44;100.00
18022;BME280;9136;48.822;7.966;2023-02-10T03:54:00;102364.25;;;-5.33;100.00
18022;BME280;9136;48.822;7.966;2023-02-10T03:56:48;102354.69;;;-5.36;100.00
18022;BME280;9136;48.822;7.966;2023-02-10T03:59:38;102356.25;;;-5.38;100.00
18022;BME280;9136;48.822;7.966;2023-02-10T04:02:26;102378.16;;;-5.30;100.00
18022;BME280;9136;48.822;7.966;2023-02-10T04:05:14;102362.28;;;-5.37;100.00
18022;BME280;9136;48.822;7.966;2023-02-10T04:08:01;102355.56;;;-5.35;100.00
18022;BME280;9136;48.822;7.966;2023-02-10T04:10:49;102381.31;;;-5.21;100.00
18022;BME280;9136;48.822;7.966;2023-02-10T04:13:37;102354.09;;;-5.32;100.00
18022;BME280;9136;48.822;7.966;2023-02-10T04:16:27;102353.81;;;-5.36;100.00
18022;BME280;9136;48.822;7.966;2023-02-10T04:19:16;102368.88;;;-5.28;100.00
18022;BME280;9136;48.822;7.966;2023-02-10T04:22:04;102341.56;;;-5.54;100.00
18022;BME280;9136;48.822;7.966;2023-02-10T04:24:52;102377.75;;;-5.36;100.00
18022;BME280;9136;48.822;7.966;2023-02-10T04:27:39;102392.22;;;-5.23;100.00
18022;BME280;9136;48.822;7.966;2023-02-10T04:30:27;102402.56;;;-5.22;100.00
18022;BME280;9136;48.822;7.966;2023-02-10T04:33:17;102355.56;;;-5.49;100.00
18022;BME280;9136;48.822;7.966;2023-02-10T04:36:06;102365.75;;;-5.62;100.00
18022;BME280;9136;48.822;7.966;2023-02-10T04:38:54;102364.69;;;-5.52;100.00
18022;BME280;9136;48.822;7.966;2023-02-10T04:41:42;102344.00;;;-5.55;100.00
18022;BME280;9136;48.822;7.966;2023-02-10T04:44:30;102385.16;;;-5.27;100.00
18022;BME280;9136;48.822;7.966;2023-02-10T04:47:18;102377.03;;;-5.33;100.00
18022;BME280;9136;48.822;7.966;2023-02-10T04:50:07;102360.41;;;-5.40;100.00
18022;BME280;9136;48.822;7.966;2023-02-10T04:52:55;102368.38;;;-5.35;100.00
18022;BME280;9136;48.822;7.966;2023-02-10T04:55:43;102375.19;;;-5.23;100.00
18022;BME280;9136;48.822;7.966;2023-02-10T04:58:31;102381.72;;;-5.01;100.00
18022;BME280;9136;48.822;7.966;2023-02-10T05:01:19;102362.78;;;-4.90;100.00
18022;BME280;9136;48.822;7.966;2023-02-10T05:04:07;102373.25;;;-5.00;100.00
18022;BME280;9136;48.822;7.966;2023-02-10T05:06:56;102384.38;;;-5.00;100.00
18022;BME280;9136;48.822;7.966;2023-02-10T05:09:45;102357.06;;;-5.12;100.00
18022;BME280;9136;48.822;7.966;2023-02-10T05:12:33;102369.47;;;-5.05;100.00
18022;BME280;9136;48.822;7.966;2023-02-10T05:15:20;102367.91;;;-5.03;100.00
18022;BME280;9136;48.822;7.966;2023-02-10T05:18:08;102374.22;;;-4.98;100.00
18022;BME280;9136;48.822;7.966;2023-02-10T05:20:56;102406.56;;;-4.87;100.00
18022;BME280;9136;48.822;7.966;2023-02-10T05:23:45;102394.81;;;-4.97;100.00
18022;BME280;9136;48.822;7.966;2023-02-10T05:26:33;102390.88;;;-5.18;100.00
18022;BME280;9136;48.822;7.966;2023-02-10T05:29:21;102394.50;;;-5.28;100.00
18022;BME280;9136;48.822;7.966;2023-02-10T05:32:09;102381.47;;;-5.44;100.00
18022;BME280;9136;48.822;7.966;2023-02-10T05:34:57;102394.25;;;-5.44;100.00
18022;BME280;9136;48.822;7.966;2023-02-10T05:37:45;102414.91;;;-5.29;100.00
18022;BME280;9136;48.822;7.966;2023-02-10T05:40:34;102413.28;;;-5.40;100.00
18022;BME280;9136;48.822;7.966;2023-02-10T05:43:22;102447.41;;;-5.28;100.00
18022;BME280;9136;48.822;7.966;2023-02-10T05:46:10;102428.44;;;-5.43;100.00
18022;BME280;9136;48.822;7.966;2023-02-10T05:48:57;102428.19;;;-5.35;100.00
18022;BME280;9136;48.822;7.966;2023-02-10T05:51:46;102447.63;;;-5.25;100.00
18022;BME280;9136;48.822;7.966;2023-02-10T05:54:34;102451.25;;;-5.22;100.00
18022;BME280;9136;48.822;7.966;2023-02-10T05:57:24;102449.97;;;-5.28;100.00
18022;BME280;9136;48.822;7.966;2023-02-10T06:00:13;102464.94;;;-5.34;100.00
18022;BME280;9136;48.822;7.966;2023-02-10T06:03:01;102439.34;;;-5.59;100.00
18022;BME280;9136;48.822;7.966;2023-02-10T06:05:48;102476.91;;;-5.47;100.00
18022;BME280;9136;48.822;7.966;2023-02-10T06:08:36;102431.19;;;-5.54;100.00
18022;BME280;9136;48.822;7.966;2023-02-10T06:11:24;102437.78;;;-5.57;100.00
18022;BME280;9136;48.822;7.966;2023-02-10T06:14:13;102447.22;;;-5.56;100.00
18022;BME280;9136;48.822;7.966;2023-02-10T06:17:01;102470.38;;;-5.55;100.00
18022;BME280;9136;48.822;7.966;2023-02-10T06:19:49;102475.13;;;-5.48;100.00
18022;BME280;9136;48.822;7.966;2023-02-10T06:22:38;102468.19;;;-5.37;100.00
18022;BME280;9136;48.822;7.966;2023-02-10T06:25:26;102444.50;;;-5.46;100.00
18022;BME280;9136;48.822;7.966;2023-02-10T06:28:14;102464.72;;;-5.37;100.00
18022;BME280;9136;48.822;7.966;2023-02-10T06:31:03;102461.66;;;-5.45;100.00
18022;BME280;9136;48.822;7.966;2023-02-10T06:33:53;102467.84;;;-5.41;100.00
18022;BME280;9136;48.822;7.966;2023-02-10T06:36:41;102437.19;;;-5.53;100.00
18022;BME280;9136;48.822;7.966;2023-02-10T06:39:29;102467.66;;;-5.44;100.00
18022;BME280;9136;48.822;7.966;2023-02-10T06:42:16;102465.53;;;-5.38;100.00
18022;BME280;9136;48.822;7.966;2023-02-10T06:45:05;102449.63;;;-5.46;100.00
18022;BME280;9136;48.822;7.966;2023-02-10T06:47:56;102459.72;;;-5.23;100.00
18022;BME280;9136;48.822;7.966;2023-02-10T06:50:44;102478.00;;;-5.18;100.00
18022;BME280;9136;48.822;7.966;2023-02-10T06:53:32;102491.31;;;-5.10;100.00
18022;BME280;9136;48.822;7.966;2023-02-10T06:56:22;102471.97;;;-5.19;100.00
18022;BME280;9136;48.822;7.966;2023-02-10T06:59:10;102483.41;;;-5.13;100.00
18022;BME280;9136;48.822;7.966;2023-02-10T07:01:58;102498.69;;;-5.15;100.00
18022;BME280;9136;48.822;7.966;2023-02-10T07:04:48;102492.88;;;-5.12;100.00
18022;BME280;9136;48.822;7.966;2023-02-10T07:07:36;102482.84;;;-5.09;100.00
18022;BME280;9136;48.822;7.966;2023-02-10T07:10:25;102453.25;;;-5.18;100.00
18022;BME280;9136;48.822;7.966;2023-02-10T07:13:12;102472.53;;;-4.84;100.00
18022;BME280;9136;48.822;7.966;2023-02-10T07:16:01;102486.44;;;-4.81;100.00
18022;BME280;9136;48.822;7.966;2023-02-10T07:18:49;102479.03;;;-4.76;100.00
18022;BME280;9136;48.822;7.966;2023-02-10T07:21:39;102481.50;;;-4.65;100.00
18022;BME280;9136;48.822;7.966;2023-02-10T07:24:26;102483.13;;;-4.53;100.00
18022;BME280;9136;48.822;7.966;2023-02-10T07:27:14;102497.97;;;-4.35;100.00
18022;BME280;9136;48.822;7.966;2023-02-10T07:30:03;102478.38;;;-4.47;100.00
18022;BME280;9136;48.822;7.966;2023-02-10T07:32:51;102500.69;;;-4.33;100.00
18022;BME280;9136;48.822;7.966;2023-02-10T07:35:39;102484.09;;;-4.38;100.00
18022;BME280;9136;48.822;7.966;2023-02-10T07:38:28;102487.84;;;-4.33;100.00
18022;BME280;9136;48.822;7.966;2023-02-10T07:41:16;102507.28;;;-4.23;100.00
18022;BME280;9136;48.822;7.966;2023-02-10T07:44:04;102510.81;;;-4.08;100.00
18022;BME280;9136;48.822;7.966;2023-02-10T07:46:52;102501.81;;;-4.01;100.00
18022;BME280;9136;48.822;7.966;2023-02-10T07:49:40;102480.03;;;-4.21;100.00
18022;BME280;9136;48.822;7.966;2023-02-10T07:52:27;102492.03;;;-4.07;100.00
18022;BME280;9136;48.822;7.966;2023-02-10T07:55:17;102500.50;;;-3.82;100.00
18022;BME280;9136;48.822;7.966;2023-02-10T07:58:07;102507.41;;;-3.81;100.00
18022;BME280;9136;48.822;7.966;2023-02-10T08:00:55;102518.97;;;-3.46;100.00
18022;BME280;9136;48.822;7.966;2023-02-10T08:03:43;102525.97;;;-3.43;100.00
18022;BME280;9136;48.822;7.966;2023-02-10T08:06:31;102511.13;;;-3.48;100.00
18022;BME280;9136;48.822;7.966;2023-02-10T08:09:18;102495.63;;;-3.49;100.00
18022;BME280;9136;48.822;7.966;2023-02-10T08:12:07;102487.50;;;-3.57;100.00
18022;BME280;9136;48.822;7.966;2023-02-10T08:14:55;102515.34;;;-3.35;100.00
18022;BME280;9136;48.822;7.966;2023-02-10T08:17:44;102495.50;;;-3.37;100.00
18022;BME280;9136;48.822;7.966;2023-02-10T08:20:31;102511.13;;;-3.20;100.00
18022;BME280;9136;48.822;7.966;2023-02-10T08:23:19;102521.34;;;-2.92;100.00
18022;BME280;9136;48.822;7.966;2023-02-10T08:26:09;102511.88;;;-2.93;100.00
18022;BME280;9136;48.822;7.966;2023-02-10T08:28:59;102484.66;;;-3.04;100.00
18022;BME280;9136;48.822;7.966;2023-02-10T08:31:48;102522.88;;;-2.80;100.00
18022;BME280;9136;48.822;7.966;2023-02-10T08:34:36;102496.09;;;-2.84;100.00
18022;BME280;9136;48.822;7.966;2023-02-10T08:37:24;102507.09;;;-2.57;100.00
18022;BME280;9136;48.822;7.966;2023-02-10T08:40:12;102505.94;;;-2.47;100.00
18022;BME280;9136;48.822;7.966;2023-02-10T08:43:01;102527.28;;;-2.34;100.00
18022;BME280;9136;48.822;7.966;2023-02-10T08:45:51;102523.38;;;-2.27;100.00
18022;BME280;9136;48.822;7.966;2023-02-10T08:48:39;102531.09;;;-2.12;100.00
18022;BME280;9136;48.822;7.966;2023-02-10T08:51:27;102503.22;;;-2.19;100.00
18022;BME280;9136;48.822;7.966;2023-02-10T08:54:16;102523.84;;;-2.03;100.00
18022;BME280;9136;48.822;7.966;2023-02-10T08:57:04;102526.16;;;-1.93;100.00
18022;BME280;9136;48.822;7.966;2023-02-10T08:59:52;102526.47;;;-1.87;100.00
18022;BME280;9136;48.822;7.966;2023-02-10T09:02:42;102519.81;;;-1.83;100.00
18022;BME280;9136;48.822;7.966;2023-02-10T09:05:30;102520.44;;;-1.87;100.00
18022;BME280;9136;48.822;7.966;2023-02-10T09:08:18;102525.44;;;-1.74;100.00
18022;BME280;9136;48.822;7.966;2023-02-10T09:11:06;102521.66;;;-1.64;100.00
18022;BME280;9136;48.822;7.966;2023-02-10T09:13:54;102511.06;;;-1.54;100.00
18022;BME280;9136;48.822;7.966;2023-02-10T09:16:43;102527.97;;;-1.27;100.00
18022;BME280;9136;48.822;7.966;2023-02-10T09:19:32;102518.06;;;-1.35;100.00
18022;BME280;9136;48.822;7.966;2023-02-10T09:22:20;102527.75;;;-1.15;100.00
18022;BME280;9136;48.822;7.966;2023-02-10T09:25:08;102532.47;;;-0.90;100.00
18022;BME280;9136;48.822;7.966;2023-02-10T09:27:56;102516.56;;;-0.98;100.00
18022;BME280;9136;48.822;7.966;2023-02-10T09:30:44;102527.88;;;-0.62;100.00
18022;BME280;9136;48.822;7.966;2023-02-10T09:33:32;102511.66;;;-0.59;100.00
18022;BME280;9136;48.822;7.966;2023-02-10T09:36:22;102516.81;;;-0.41;100.00
18022;BME280;9136;48.822;7.966;2023-02-10T09:39:09;102499.28;;;-0.31;100.00
18022;BME280;9136;48.822;7.966;2023-02-10T09:42:03;102517.13;;;0.01;100.00
18022;BME280;9136;48.822;7.966;2023-02-10T09:44:58;102504.94;;;-0.20;100.00
18022;BME280;9136;48.822;7.966;2023-02-10T09:47:49;102507.63;;;-0.18;100.00
18022;BME280;9136;48.822;7.966;2023-02-10T09:50:45;102527.16;;;-0.06;100.00
18022;BME280;9136;48.822;7.966;2023-02-10T09:53:37;102527.09;;;0.11;100.00
18022;BME280;9136;48.822;7.966;2023-02-10T09:56:25;102512.66;;;0.16;100.00
18022;BME280;9136;48.822;7.966;2023-02-10T09:59:16;102538.13;;;0.26;100.00
18022;BME280;9136;48.822;7.966;2023-02-10T10:02:13;102518.31;;;0.26;100.00
18022;BME280;9136;48.822;7.966;2023-02-10T10:05:10;102554.16;;;0.56;100.00
18022;BME280;9136;48.822;7.966;2023-02-10T10:08:03;102555.91;;;0.57;100.00
18022;BME280;9136;48.822;7.966;2023-02-10T10:10:56;102534.50;;;0.40;100.00
18022;BME280;9136;48.822;7.966;2023-02-10T10:13:47;102558.75;;;0.81;100.00
18022;BME280;9136;48.822;7.966;2023-02-10T10:16:46;102568.22;;;1.00;100.00
18022;BME280;9136;48.822;7.966;2023-02-10T10:19:50;102556.19;;;1.21;100.00
18022;BME280;9136;48.822;7.966;2023-02-10T10:22:46;102526.00;;;1.22;100.00
18022;BME280;9136;48.822;7.966;2023-02-10T10:25:49;102566.84;;;1.48;100.00
18022;BME280;9136;48.822;7.966;2023-02-10T10:28:52;102532.06;;;1.43;100.00
18022;BME280;9136;48.822;7.966;2023-02-10T10:31:48;102567.22;;;1.78;100.00
18022;BME280;9136;48.822;7.966;2023-02-10T10:34:41;102520.97;;;1.66;100.00
18022;BME280;9136;48.822;7.966;2023-02-10T10:37:31;102527.00;;;1.88;100.00
18022;BME280;9136;48.822;7.966;2023-02-10T10:40:21;102566.63;;;2.28;100.00
18022;BME280;9136;48.822;7.966;2023-02-10T10:43:14;102527.25;;;2.39;100.00
18022;BME280;9136;48.822;7.966;2023-02-10T10:46:12;102559.06;;;2.57;100.00
18022;BME280;9136;48.822;7.966;2023-02-10T10:49:01;102554.66;;;2.78;100.00
18022;BME280;9136;48.822;7.966;2023-02-10T10:51:48;102543.19;;;2.72;100.00
18022;BME280;9136;48.822;7.966;2023-02-10T10:54:36;102551.34;;;2.58;100.00
18022;BME280;9136;48.822;7.966;2023-02-10T10:57:27;102539.88;;;3.25;100.00
18022;BME280;9136;48.822;7.966;2023-02-10T11:00:20;102536.09;;;5.12;100.00
18022;BME280;9136;48.822;7.966;2023-02-10T11:03:15;102520.22;;;7.38;72.77
18022;BME280;9136;48.822;7.966;2023-02-10T11:06:06;102504.84;;;7.55;60.52
18022;BME280;9136;48.822;7.966;2023-02-10T11:08:58;102502.91;;;9.54;55.31
18022;BME280;9136;48.822;7.966;2023-02-10T11:11:47;102516.69;;;10.42;50.30
18022;BME280;9136;48.822;7.966;2023-02-10T11:14:39;102518.66;;;11.15;46.98
18022;BME280;9136;48.822;7.966;2023-02-10T11:17:35;102507.25;;;11.77;45.69
18022;BME280;9136;48.822;7.966;2023-02-10T11:20:27;102509.94;;;11.89;44.19
18022;BME280;9136;48.822;7.966;2023-02-10T11:23:16;102514.28;;;11.31;45.14
18022;BME280;9136;48.822;7.966;2023-02-10T11:26:06;102516.03;;;11.74;45.87
18022;BME280;9136;48.822;7.966;2023-02-10T11:28:55;102521.25;;;12.16;43.25
18022;BME280;9136;48.822;7.966;2023-02-10T11:31:44;102520.00;;;13.08;42.04
18022;BME280;9136;48.822;7.966;2023-02-10T11:34:37;102501.97;;;12.09;42.12
18022;BME280;9136;48.822;7.966;2023-02-10T11:37:30;102514.09;;;12.54;43.52
18022;BME280;9136;48.822;7.966;2023-02-10T11:40:21;102507.03;;;12.63;40.38
18022;BME280;9136;48.822;7.966;2023-02-10T11:43:13;102487.94;;;11.99;43.05
18022;BME280;9136;48.822;7.966;2023-02-10T11:46:05;102503.44;;;12.85;40.25
18022;BME280;9136;48.822;7.966;2023-02-10T11:48:57;102504.00;;;13.34;39.07
18022;BME280;9136;48.822;7.966;2023-02-10T11:51:51;102489.56;;;14.55;36.41
18022;BME280;9136;48.822;7.966;2023-02-10T11:54:42;102514.47;;;14.34;37.27
18022;BME280;9136;48.822;7.966;2023-02-10T11:57:40;102484.34;;;12.29;39.62
18022;BME280;9136;48.822;7.966;2023-02-10T12:00:51;102496.38;;;12.88;39.98
18022;BME280;9136;48.822;7.966;2023-02-10T12:03:56;102466.81;;;13.62;36.03
18022;BME280;9136;48.822;7.966;2023-02-10T12:06:52;102478.91;;;12.66;36.98
18022;BME280;9136;48.822;7.966;2023-02-10T12:09:49;102470.50;;;13.39;37.51
18022;BME280;9136;48.822;7.966;2023-02-10T12:12:44;102464.47;;;13.25;36.18
18022;BME280;9136;48.822;7.966;2023-02-10T12:15:39;102484.88;;;14.78;34.28
18022;BME280;9136;48.822;7.966;2023-02-10T12:18:57;102464.84;;;14.59;35.76
18022;BME280;9136;48.822;7.966;2023-02-10T12:22:02;102469.75;;;16.79;32.15
18022;BME280;9136;48.822;7.966;2023-02-10T12:25:15;102471.03;;;15.18;33.30
18022;BME280;9136;48.822;7.966;2023-02-10T12:28:10;102458.69;;;14.55;33.58
18022;BME280;9136;48.822;7.966;2023-02-10T12:31:11;102466.13;;;14.92;33.84
18022;BME280;9136;48.822;7.966;2023-02-10T12:34:23;102449.91;;;14.55;35.28
18022;BME280;9136;48.822;7.966;2023-02-10T12:37:25;102465.38;;;13.24;33.84
18022;BME280;9136;48.822;7.966;2023-02-10T12:40:36;102470.41;;;11.86;36.00
18022;BME280;9136;48.822;7.966;2023-02-10T12:43:53;102460.00;;;13.35;35.66
18022;BME280;9136;48.822;7.966;2023-02-10T12:46:54;102446.59;;;13.56;33.30
18022;BME280;9136;48.822;7.966;2023-02-10T12:49:58;102441.22;;;16.06;32.29
18022;BME280;9136;48.822;7.966;2023-02-10T12:52:54;102458.44;;;14.75;32.36
18022;BME280;9136;48.822;7.966;2023-02-10T12:55:53;102468.38;;;13.83;32.11
18022;BME280;9136;48.822;7.966;2023-02-10T12:58:46;102456.34;;;13.53;33.56
18022;BME280;9136;48.822;7.966;2023-02-10T13:01:37;102445.03;;;14.86;32.18
18022;BME280;9136;48.822;7.966;2023-02-10T13:04:30;102452.03;;;13.42;33.21
18022;BME280;9136;48.822;7.966;2023-02-10T13:07:28;102453.44;;;13.77;32.30
18022;BME280;9136;48.822;7.966;2023-02-10T13:10:29;102440.53;;;14.26;32.38
18022;BME280;9136;48.822;7.966;2023-02-10T13:13:22;102455.56;;;13.38;34.56
18022;BME280;9136;48.822;7.966;2023-02-10T13:16:15;102450.41;;;13.26;35.82
18022;BME280;9136;48.822;7.966;2023-02-10T13:19:07;102450.06;;;12.31;36.54
18022;BME280;9136;48.822;7.966;2023-02-10T13:22:05;102441.47;;;11.53;37.92
18022;BME280;9136;48.822;7.966;2023-02-10T13:25:01;102435.81;;;9.88;41.64
18022;BME280;9136;48.822;7.966;2023-02-10T13:28:04;102433.16;;;9.85;42.41
18022;BME280;9136;48.822;7.966;2023-02-10T13:31:18;102435.63;;;9.57;43.07
18022;BME280;9136;48.822;7.966;2023-02-10T13:34:16;102434.69;;;8.56;45.13
18022;BME280;9136;48.822;7.966;2023-02-10T13:37:08;102427.22;;;8.17;45.77
18022;BME280;9136;48.822;7.966;2023-02-10T13:40:03;102412.50;;;8.27;47.50
18022;BME280;9136;48.822;7.966;2023-02-10T13:42:54;102436.44;;;8.56;46.35
18022;BME280;9136;48.822;7.966;2023-02-10T13:45:49;102432.16;;;7.93;47.22
18022;BME280;9136;48.822;7.966;2023-02-10T13:48:39;102426.81;;;7.85;47.64
18022;BME280;9136;48.822;7.966;2023-02-10T13:51:29;102427.06;;;8.03;46.85
18022;BME280;9136;48.822;7.966;2023-02-10T13:54:26;102430.44;;;7.96;47.21
18022;BME280;9136;48.822;7.966;2023-02-10T13:57:30;102435.78;;;8.04;47.99
18022;BME280;9136;48.822;7.966;2023-02-10T14:00:20;102407.09;;;7.51;49.44
18022;BME280;9136;48.822;7.966;2023-02-10T14:03:20;102428.13;;;7.04;50.15
18022;BME280;9136;48.822;7.966;2023-02-10T14:06:10;102431.75;;;6.64;52.01
18022;BME280;9136;48.822;7.966;2023-02-10T14:09:02;102416.59;;;6.45;52.94
18022;BME280;9136;48.822;7.966;2023-02-10T14:11:51;102431.75;;;6.63;52.55
18022;BME280;9136;48.822;7.966;2023-02-10T14:14:39;102436.91;;;6.58;53.29
18022;BME280;9136;48.822;7.966;2023-02-10T14:17:27;102439.91;;;6.79;51.77
18022;BME280;9136;48.822;7.966;2023-02-10T14:20:24;102425.78;;;7.18;51.15
18022;BME280;9136;48.822;7.966;2023-02-10T14:23:19;102408.69;;;7.41;50.73
18022;BME280;9136;48.822;7.966;2023-02-10T14:26:15;102412.97;;;7.35;49.86
18022;BME280;9136;48.822;7.966;2023-02-10T14:29:09;102395.75;;;7.51;52.81
18022;BME280;9136;48.822;7.966;2023-02-10T14:32:00;102422.16;;;7.64;49.90
18022;BME280;9136;48.822;7.966;2023-02-10T14:34:54;102440.50;;;7.69;49.92
18022;BME280;9136;48.822;7.966;2023-02-10T14:37:48;102421.78;;;7.41;51.03
18022;BME280;9136;48.822;7.966;2023-02-10T14:40:38;102433.38;;;7.57;54.00
18022;BME280;9136;48.822;7.966;2023-02-10T14:43:27;102422.88;;;7.56;51.58
18022;BME280;9136;48.822;7.966;2023-02-10T14:46:20;102406.94;;;7.40;55.27
18022;BME280;9136;48.822;7.966;2023-02-10T14:49:09;102423.38;;;7.32;54.83
18022;BME280;9136;48.822;7.966;2023-02-10T14:51:57;102418.88;;;7.23;55.53
18022;BME280;9136;48.822;7.966;2023-02-10T14:54:46;102411.69;;;7.10;56.53
18022;BME280;9136;48.822;7.966;2023-02-10T14:57:36;102408.09;;;7.03;58.21
18022;BME280;9136;48.822;7.966;2023-02-10T15:00:24;102395.16;;;7.11;56.45
18022;BME280;9136;48.822;7.966;2023-02-10T15:03:12;102388.97;;;7.06;58.57
18022;BME280;9136;48.822;7.966;2023-02-10T15:06:00;102395.81;;;6.98;59.72
18022;BME280;9136;48.822;7.966;2023-02-10T15:08:51;102394.97;;;6.99;60.46